createdAt,value
2022-08-11T00:00:42.102Z,2.50
2022-08-11T00:02:52.332Z,3.00
2022-08-11T00:04:57.588Z,2.40
2022-08-11T00:07:02.751Z,2.40
2022-08-11T00:09:10.871Z,2.50
2022-08-11T00:11:18.264Z,2.42
2022-08-11T00:13:23.479Z,3.28
2022-08-11T00:15:29.349Z,3.00
2022-08-11T00:17:35.055Z,2.85
2022-08-11T00:20:11.513Z,2.85
2022-08-11T00:22:14.497Z,3.28
2022-08-11T00:24:18.969Z,3.30
2022-08-11T00:26:24.183Z,3.10
2022-08-11T00:28:30.520Z,3.00
2022-08-11T00:30:44.399Z,2.67
2022-08-11T00:32:56.544Z,2.92
2022-08-11T00:35:54.470Z,2.65
2022-08-11T00:37:25.425Z,2.50
2022-08-11T00:39:30.327Z,2.25
2022-08-11T00:41:49.309Z,2.65
2022-08-11T00:44:16.308Z,2.40
2022-08-11T00:46:52.553Z,2.53
2022-08-11T00:49:31.031Z,2.70
2022-08-11T00:52:05.464Z,2.47
2022-08-11T00:54:43.992Z,2.38
2022-08-11T00:57:36.250Z,3.65
2022-08-11T01:00:07.683Z,2.25
2022-08-11T01:02:30.691Z,2.30
2022-08-11T01:09:38.349Z,2.58
2022-08-11T01:12:14.485Z,3.42
2022-08-11T01:14:40.986Z,5.47
2022-08-11T01:17:15.012Z,4.72
2022-08-11T01:20:47.861Z,6.07
2022-08-11T01:22:41.382Z,5.60
2022-08-11T01:25:20.956Z,4.68
2022-08-11T01:27:57.456Z,3.20
2022-08-11T01:30:37.077Z,3.17
2022-08-11T01:33:13.616Z,2.90
2022-08-11T01:36:00.339Z,2.28
2022-08-11T01:38:44.061Z,2.10
2022-08-11T01:41:21.767Z,2.47
2022-08-11T01:44:14.938Z,2.40
2022-08-11T01:46:40.477Z,2.30
2022-08-11T01:50:01.033Z,2.38
2022-08-11T01:52:06.350Z,2.92
2022-08-11T01:54:35.081Z,2.17
2022-08-11T01:56:51.904Z,2.17
2022-08-11T01:59:21.825Z,2.45
2022-08-11T02:01:54.379Z,2.15
2022-08-11T02:04:40.387Z,2.40
2022-08-11T02:07:09.728Z,2.85
2022-08-11T02:09:49.751Z,3.63
2022-08-11T02:12:00.036Z,3.10
2022-08-11T02:14:29.527Z,3.40
2022-08-11T02:17:00.506Z,2.78
2022-08-11T02:19:49.268Z,2.53
2022-08-11T02:22:16.666Z,2.33
2022-08-11T02:24:41.678Z,2.45
2022-08-11T02:26:56.118Z,2.50
2022-08-11T02:29:29.627Z,2.42
2022-08-11T02:34:44.069Z,2.30
2022-08-11T02:37:26.559Z,2.15
2022-08-11T02:39:35.919Z,2.40
2022-08-11T02:42:33.397Z,1.95
2022-08-11T02:45:05.428Z,2.92
2022-08-11T02:47:34.657Z,2.20
2022-08-11T02:50:05.916Z,2.17
2022-08-11T02:52:54.847Z,2.05
2022-08-11T02:55:56.709Z,2.10
2022-08-11T02:58:30.158Z,2.03
2022-08-11T03:00:47.646Z,2.10
2022-08-11T03:03:09.488Z,2.03
2022-08-11T03:05:47.985Z,1.95
2022-08-11T03:08:26.832Z,1.98
2022-08-11T03:11:10.063Z,1.90
2022-08-11T03:13:45.437Z,2.13
2022-08-11T03:16:23.726Z,1.90
2022-08-11T03:18:50.750Z,1.83
2022-08-11T03:22:01.694Z,2.25
2022-08-11T03:24:09.159Z,2.28
2022-08-11T03:26:31.002Z,2.10
2022-08-11T03:28:45.152Z,1.95
2022-08-11T03:31:25.898Z,2.00
2022-08-11T03:33:53.940Z,1.85
2022-08-11T03:36:22.687Z,1.80
2022-08-11T03:38:30.539Z,1.98
2022-08-11T03:41:06.215Z,1.95
2022-08-11T03:43:58.809Z,2.33
2022-08-11T03:46:46.595Z,1.90
2022-08-11T03:49:19.429Z,1.75
2022-08-11T03:51:54.303Z,1.67
2022-08-11T03:54:30.781Z,1.85
2022-08-11T03:57:09.643Z,1.67
2022-08-11T03:59:46.326Z,2.15
2022-08-11T04:02:24.765Z,1.95
2022-08-11T04:05:01.349Z,2.30
2022-08-11T04:07:39.720Z,2.10
2022-08-11T04:10:08.525Z,2.67
2022-08-11T04:12:37.389Z,2.30
2022-08-11T04:15:16.863Z,1.70
2022-08-11T04:17:51.165Z,1.92
2022-08-11T04:20:33.148Z,2.00
2022-08-11T04:23:09.188Z,1.90
2022-08-11T04:25:58.160Z,1.90
2022-08-11T04:28:29.331Z,1.70
2022-08-11T04:31:10.077Z,1.90
2022-08-11T04:33:42.986Z,1.75
2022-08-11T04:36:20.885Z,1.85
2022-08-11T04:38:49.682Z,1.95
2022-08-11T04:41:17.811Z,1.77
2022-08-11T04:44:02.249Z,1.90
2022-08-11T04:46:43.194Z,1.75
2022-08-11T04:49:34.030Z,1.80
2022-08-11T04:52:10.373Z,1.90
2022-08-11T04:54:53.462Z,2.05
2022-08-11T04:57:16.141Z,2.10
2022-08-11T05:00:07.072Z,1.95
2022-08-11T05:02:43.383Z,1.85
2022-08-11T05:05:34.190Z,1.60
2022-08-11T05:08:10.346Z,1.90
2022-08-11T05:10:46.657Z,1.90
2022-08-11T05:12:57.252Z,2.03
2022-08-11T05:15:13.801Z,2.22
2022-08-11T05:17:50.886Z,2.00
2022-08-11T05:20:07.750Z,2.08
2022-08-11T05:22:25.582Z,1.73
2022-08-11T05:25:01.085Z,2.00
2022-08-11T05:27:19.328Z,2.10
2022-08-11T05:29:42.860Z,2.10
2022-08-11T05:32:14.597Z,1.70
2022-08-11T05:34:46.746Z,2.10
2022-08-11T05:36:56.409Z,2.42
2022-08-11T05:39:33.765Z,2.22
2022-08-11T05:41:53.535Z,2.15
2022-08-11T05:44:21.404Z,1.63
2022-08-11T05:46:41.266Z,1.60
2022-08-11T05:48:57.915Z,1.80
2022-08-11T05:51:16.454Z,1.50
2022-08-11T05:53:45.939Z,1.60
2022-08-11T05:56:05.093Z,1.80
2022-08-11T05:58:12.449Z,1.50
2022-08-11T06:00:19.050Z,1.58
2022-08-11T06:02:24.202Z,1.60
2022-08-11T06:04:31.135Z,1.90
2022-08-11T06:06:35.521Z,1.45
2022-08-11T06:08:41.151Z,1.48
2022-08-11T06:10:47.612Z,1.55
2022-08-11T06:12:56.951Z,1.60
2022-08-11T06:15:20.171Z,1.33
2022-08-11T06:17:38.957Z,1.23
2022-08-11T06:19:46.258Z,4.40
2022-08-11T06:21:50.895Z,7.72
2022-08-11T06:23:57.727Z,13.88
2022-08-11T06:26:05.801Z,10.60
2022-08-11T06:28:15.906Z,8.70
2022-08-11T06:30:40.841Z,12.57
2022-08-11T06:32:47.950Z,4.15
2022-08-11T06:35:33.848Z,3.35
2022-08-11T06:38:11.153Z,5.75
2022-08-11T06:40:42.663Z,4.88
2022-08-11T06:43:19.432Z,3.33
2022-08-11T06:45:49.874Z,2.75
2022-08-11T06:47:54.667Z,2.13
2022-08-11T06:50:12.980Z,1.92
2022-08-11T06:52:34.064Z,1.80
2022-08-11T06:54:42.803Z,2.00
2022-08-11T06:57:28.261Z,1.67
2022-08-11T06:59:38.858Z,1.50
2022-08-11T07:02:07.924Z,1.45
2022-08-11T07:04:13.491Z,1.85
2022-08-11T07:06:51.012Z,1.60
2022-08-11T07:09:36.945Z,1.58
2022-08-11T07:12:14.194Z,2.08
2022-08-11T07:14:39.015Z,1.50
2022-08-11T07:16:43.986Z,2.13
2022-08-11T07:19:00.817Z,1.70
2022-08-11T07:22:00.342Z,1.60
2022-08-11T07:24:02.338Z,1.80
2022-08-11T07:26:19.294Z,1.70
2022-08-11T07:28:41.970Z,2.30
2022-08-11T07:30:46.537Z,1.77
2022-08-11T07:33:01.218Z,1.42
2022-08-11T07:35:18.039Z,1.73
2022-08-11T07:37:23.156Z,1.35
2022-08-11T07:39:34.480Z,1.55
2022-08-11T07:41:40.235Z,1.30
2022-08-11T07:43:50.289Z,1.40
2022-08-11T07:46:09.380Z,1.60
2022-08-11T07:48:28.380Z,2.22
2022-08-11T07:50:44.984Z,1.92
2022-08-11T07:52:52.197Z,4.40
2022-08-11T07:55:13.327Z,2.10
2022-08-11T07:58:10.221Z,1.77
2022-08-11T08:00:11.047Z,1.60
2022-08-11T08:02:33.049Z,1.80
2022-08-11T08:04:49.874Z,1.60
2022-08-11T08:07:06.566Z,1.38
2022-08-11T08:09:25.179Z,1.40
2022-08-11T08:11:41.819Z,1.65
2022-08-11T08:13:58.830Z,1.35
2022-08-11T08:16:16.940Z,1.90
2022-08-11T08:18:26.675Z,1.55
2022-08-11T08:20:56.013Z,1.58
2022-08-11T08:23:04.124Z,1.55
2022-08-11T08:25:09.025Z,1.70
2022-08-11T08:27:15.613Z,1.67
2022-08-11T08:29:32.626Z,1.40
2022-08-11T08:31:37.215Z,1.63
2022-08-11T08:33:43.507Z,1.88
2022-08-11T08:35:55.682Z,1.48
2022-08-11T08:38:03.935Z,1.38
2022-08-11T08:40:10.472Z,1.65
2022-08-11T08:42:20.682Z,1.40
2022-08-11T08:44:41.154Z,1.48
2022-08-11T08:46:50.678Z,1.60
2022-08-11T08:48:56.133Z,1.90
2022-08-11T08:51:15.990Z,1.60
2022-08-11T08:53:23.501Z,2.45
2022-08-11T08:55:30.685Z,2.22
2022-08-11T08:57:39.875Z,1.48
2022-08-11T08:59:48.571Z,1.73
2022-08-11T09:02:08.855Z,2.00
2022-08-11T09:04:17.396Z,1.83
2022-08-11T09:06:26.975Z,1.60
2022-08-11T09:08:36.220Z,1.23
2022-08-11T09:10:40.650Z,1.52
2022-08-11T09:12:49.238Z,1.65
2022-08-11T09:15:08.090Z,1.35
2022-08-11T09:17:13.409Z,1.33
2022-08-11T09:19:20.120Z,1.60
2022-08-11T09:21:44.551Z,1.33
2022-08-11T09:24:21.968Z,1.45
2022-08-11T09:26:44.329Z,1.48
2022-08-11T09:28:50.751Z,2.05
2022-08-11T09:30:56.292Z,1.60
2022-08-11T09:33:04.974Z,1.73
2022-08-11T09:35:10.138Z,1.40
2022-08-11T09:37:28.653Z,1.55
2022-08-11T09:40:03.972Z,1.52
2022-08-11T09:42:11.220Z,1.45
2022-08-11T09:44:33.249Z,1.60
2022-08-11T09:46:41.934Z,1.60
2022-08-11T09:48:47.297Z,1.83
2022-08-11T09:50:53.706Z,1.50
2022-08-11T09:53:35.835Z,1.42
2022-08-11T09:55:26.835Z,1.58
2022-08-11T09:57:43.655Z,1.77
2022-08-11T10:00:09.357Z,1.17
2022-08-11T10:02:19.678Z,1.60
2022-08-11T10:04:35.884Z,1.50
2022-08-11T10:06:55.906Z,1.60
2022-08-11T10:09:00.308Z,1.25
2022-08-11T10:11:05.105Z,1.30
2022-08-11T10:14:31.122Z,1.30
2022-08-11T10:15:39.550Z,1.27
2022-08-11T10:18:21.651Z,1.42
2022-08-11T10:20:29.825Z,1.37
2022-08-11T10:22:47.741Z,1.60
2022-08-11T10:25:08.445Z,1.00
2022-08-11T10:27:14.480Z,2.10
2022-08-11T10:29:37.463Z,1.67
2022-08-11T10:31:57.579Z,1.37
2022-08-11T10:34:06.893Z,1.25
2022-08-11T10:36:16.423Z,1.60
2022-08-11T10:38:21.340Z,1.48
2022-08-11T10:40:25.746Z,2.75
2022-08-11T10:42:57.298Z,2.25
2022-08-11T10:45:03.259Z,2.00
2022-08-11T10:47:24.441Z,1.55
2022-08-11T10:49:29.241Z,1.52
2022-08-11T10:51:50.707Z,1.92
2022-08-11T10:54:12.382Z,1.58
2022-08-11T10:56:30.527Z,1.38
2022-08-11T10:58:53.432Z,1.60
2022-08-11T11:01:00.250Z,1.38
2022-08-11T11:03:22.976Z,1.40
2022-08-11T11:05:34.009Z,1.20
2022-08-11T11:08:23.458Z,2.00
2022-08-11T11:10:28.140Z,1.40
2022-08-11T11:13:00.827Z,1.42
2022-08-11T11:17:58.016Z,1.38
2022-08-11T11:20:05.140Z,1.30
2022-08-11T11:22:25.077Z,1.38
2022-08-11T11:24:43.983Z,1.45
2022-08-11T11:27:20.252Z,1.60
2022-08-11T11:29:56.093Z,1.50
2022-08-11T11:32:26.445Z,1.40
2022-08-11T11:35:03.390Z,1.90
2022-08-11T11:37:08.809Z,1.65
2022-08-11T11:39:16.153Z,1.70
2022-08-11T11:41:27.588Z,1.60
2022-08-11T11:43:32.843Z,1.77
2022-08-11T11:45:38.589Z,1.45
2022-08-11T11:47:45.819Z,1.67
2022-08-11T11:49:51.683Z,1.67
2022-08-11T11:51:59.562Z,1.60
2022-08-11T11:54:07.479Z,2.20
2022-08-11T11:56:16.147Z,2.05
2022-08-11T11:58:34.097Z,2.38
2022-08-11T12:00:53.519Z,1.75
2022-08-11T12:03:01.427Z,1.85
2022-08-11T12:05:07.371Z,2.03
2022-08-11T12:07:26.803Z,3.88
2022-08-11T12:09:32.233Z,57.97
2022-08-11T12:11:51.172Z,57.90
2022-08-11T12:14:02.637Z,26.00
2022-08-11T12:16:34.148Z,14.43
2022-08-11T12:18:39.429Z,6.82
2022-08-11T12:20:46.555Z,6.05
2022-08-11T12:23:04.175Z,4.90
2022-08-11T12:25:25.374Z,3.33
2022-08-11T12:27:31.816Z,2.63
2022-08-11T12:29:41.297Z,2.75
2022-08-11T12:31:49.294Z,2.97
2022-08-11T12:34:01.905Z,3.90
2022-08-11T12:36:07.304Z,3.30
2022-08-11T12:38:12.906Z,2.90
2022-08-11T12:41:12.016Z,3.65
2022-08-11T12:43:21.047Z,2.50
2022-08-11T12:45:32.473Z,2.47
2022-08-11T12:48:38.173Z,2.60
2022-08-11T12:50:37.108Z,2.20
2022-08-11T12:52:50.881Z,2.42
2022-08-11T12:55:14.358Z,2.28
2022-08-11T12:57:51.971Z,2.13
2022-08-11T13:00:09.780Z,1.90
2022-08-11T13:02:35.618Z,2.10
2022-08-11T13:04:56.279Z,1.80
2022-08-11T13:07:04.671Z,2.00
2022-08-11T13:09:10.532Z,2.10
2022-08-11T13:11:56.428Z,1.73
2022-08-11T13:13:58.816Z,1.80
2022-08-11T13:16:04.210Z,1.88
2022-08-11T13:18:09.755Z,1.80
2022-08-11T13:20:18.904Z,1.92
2022-08-11T13:22:25.891Z,1.83
2022-08-11T13:24:31.535Z,2.03
2022-08-11T13:26:46.628Z,2.38
2022-08-11T13:28:56.674Z,2.35
2022-08-11T13:31:14.429Z,2.25
2022-08-11T13:33:21.900Z,1.80
2022-08-11T13:35:28.624Z,2.17
2022-08-11T13:38:18.712Z,2.00
2022-08-11T13:40:04.927Z,1.95
2022-08-11T13:42:10.200Z,1.95
2022-08-11T13:44:24.988Z,2.40
2022-08-11T13:46:32.485Z,2.10
2022-08-11T13:48:39.209Z,1.70
2022-08-11T13:50:58.197Z,2.05
2022-08-11T13:53:05.598Z,2.20
2022-08-11T13:55:33.424Z,2.33
2022-08-11T13:58:18.227Z,2.22
2022-08-11T14:00:25.071Z,1.98
2022-08-11T14:02:33.787Z,1.85
2022-08-11T14:04:47.544Z,2.15
2022-08-11T14:06:56.364Z,2.45
2022-08-11T14:09:01.725Z,2.00
2022-08-11T14:12:22.060Z,2.40
2022-08-11T14:13:48.648Z,1.90
2022-08-11T14:15:53.568Z,2.03
2022-08-11T14:18:08.892Z,2.00
2022-08-11T14:20:40.289Z,2.17
2022-08-11T14:22:39.751Z,2.08
2022-08-11T14:24:50.810Z,2.05
2022-08-11T14:27:01.372Z,1.90
2022-08-11T14:31:29.319Z,1.95
2022-08-11T14:33:58.937Z,1.92
2022-08-11T14:36:11.201Z,1.88
2022-08-11T14:38:16.943Z,2.00
2022-08-11T14:40:35.371Z,2.08
2022-08-11T14:42:52.217Z,1.77
2022-08-11T14:45:14.814Z,2.33
2022-08-11T14:47:23.901Z,1.95
2022-08-11T14:49:30.589Z,1.90
2022-08-11T14:51:35.134Z,1.92
2022-08-11T14:53:39.595Z,2.17
2022-08-11T14:56:08.411Z,1.90
2022-08-11T14:58:21.434Z,2.30
2022-08-11T15:00:28.075Z,2.45
2022-08-11T15:02:47.090Z,2.40
2022-08-11T15:04:53.941Z,2.58
2022-08-11T15:07:00.328Z,2.55
2022-08-11T15:09:08.890Z,2.40
2022-08-11T15:11:27.950Z,2.28
2022-08-11T15:13:37.264Z,3.25
2022-08-11T15:15:54.042Z,2.42
2022-08-11T15:18:02.004Z,3.13
2022-08-11T15:20:24.198Z,2.95
2022-08-11T15:22:41.058Z,3.08
2022-08-11T15:24:47.305Z,3.80
2022-08-11T15:27:05.908Z,4.00
2022-08-11T15:29:23.629Z,3.72
2022-08-11T15:31:31.206Z,4.00
2022-08-11T15:33:49.834Z,4.45
2022-08-11T15:36:07.444Z,4.10
2022-08-11T15:38:12.779Z,4.50
2022-08-11T15:40:39.151Z,4.35
2022-08-11T15:43:25.834Z,4.55
2022-08-11T15:45:45.538Z,4.80
2022-08-11T15:48:05.562Z,4.55
2022-08-11T15:50:16.912Z,4.60
2022-08-11T15:52:24.161Z,4.55
2022-08-11T15:54:32.187Z,4.28
2022-08-11T15:56:39.647Z,4.60
2022-08-11T15:59:40.821Z,4.28
2022-08-11T16:04:09.040Z,4.80
2022-08-11T16:06:14.744Z,4.03
2022-08-11T16:08:32.887Z,5.03
2022-08-11T16:13:06.346Z,4.47
2022-08-11T16:15:26.129Z,4.78
2022-08-11T16:17:33.942Z,4.75
2022-08-11T16:19:38.737Z,4.55
2022-08-11T16:21:44.659Z,5.32
2022-08-11T16:23:51.588Z,4.30
2022-08-11T16:25:58.259Z,4.50
2022-08-11T16:28:23.719Z,4.35
2022-08-11T16:30:28.685Z,4.32
2022-08-11T16:32:33.157Z,4.55
2022-08-11T16:34:52.385Z,5.00
2022-08-11T16:37:11.276Z,4.57
2022-08-11T16:39:19.641Z,4.78
2022-08-11T16:41:38.946Z,4.07
2022-08-11T16:43:58.432Z,4.57
2022-08-11T16:46:15.749Z,4.40
2022-08-11T16:48:36.244Z,4.85
2022-08-11T16:50:43.808Z,4.13
2022-08-11T16:52:48.568Z,4.10
2022-08-11T16:54:54.838Z,4.25
2022-08-11T16:57:21.077Z,4.40
2022-08-11T16:59:37.773Z,4.47
2022-08-11T17:01:56.964Z,4.10
2022-08-11T17:04:45.715Z,4.25
2022-08-11T17:07:03.865Z,4.15
2022-08-11T17:09:42.540Z,4.35
2022-08-11T17:12:03.941Z,4.40
2022-08-11T17:14:15.927Z,4.25
2022-08-11T17:16:24.769Z,4.72
2022-08-11T17:18:41.482Z,3.88
2022-08-11T17:20:47.721Z,4.10
2022-08-11T17:23:06.672Z,4.43
2022-08-11T17:25:18.031Z,4.30
2022-08-11T17:27:23.823Z,4.07
2022-08-11T17:29:53.651Z,4.00
2022-08-11T17:32:12.977Z,4.60
2022-08-11T17:34:31.752Z,4.32
2022-08-11T17:36:41.548Z,4.32
2022-08-11T17:38:48.984Z,4.28
2022-08-11T17:41:23.269Z,4.28
2022-08-11T17:43:42.793Z,4.45
2022-08-11T17:45:59.738Z,4.07
2022-08-11T17:48:18.707Z,3.85
2022-08-11T17:50:25.056Z,3.63
2022-08-11T17:52:42.269Z,4.55
2022-08-11T17:54:59.937Z,4.10
2022-08-11T17:57:20.467Z,4.03
2022-08-11T17:59:38.103Z,4.32
2022-08-11T18:01:44.447Z,3.85
2022-08-11T18:03:53.263Z,3.95
2022-08-11T18:06:03.919Z,3.97
2022-08-11T18:08:24.045Z,3.53
2022-08-11T18:10:46.684Z,4.47
2022-08-11T18:13:06.832Z,3.92
2022-08-11T18:15:27.170Z,4.05
2022-08-11T18:17:51.326Z,4.35
2022-08-11T18:20:09.658Z,4.00
2022-08-11T18:22:33.499Z,3.80
2022-08-11T18:24:53.572Z,3.63
2022-08-11T18:27:14.021Z,3.45
2022-08-11T18:29:31.752Z,3.85
2022-08-11T18:32:03.344Z,3.45
2022-08-11T18:34:23.041Z,3.78
2022-08-11T18:36:45.380Z,3.22
2022-08-11T18:39:04.334Z,3.22
2022-08-11T18:41:22.097Z,3.35
2022-08-11T18:43:41.522Z,3.20
2022-08-11T18:46:06.503Z,3.00
2022-08-11T18:48:26.386Z,3.13
2022-08-11T18:51:00.663Z,3.20
2022-08-11T18:53:29.811Z,2.90
2022-08-11T18:55:46.559Z,3.30
2022-08-11T18:58:05.250Z,2.92
2022-08-11T19:00:24.140Z,3.15
2022-08-11T19:02:48.641Z,2.80
2022-08-11T19:05:06.288Z,2.60
2022-08-11T19:07:25.676Z,3.00
2022-08-11T19:09:42.425Z,2.90
2022-08-11T19:12:02.949Z,2.83
2022-08-11T19:14:21.824Z,2.60
2022-08-11T19:16:38.860Z,2.78
2022-08-11T19:18:57.445Z,2.47
2022-08-11T19:21:16.444Z,2.75
2022-08-11T19:23:34.587Z,2.80
2022-08-11T19:25:53.487Z,2.90
2022-08-11T19:28:12.130Z,2.80
2022-08-11T19:30:29.006Z,2.70
2022-08-11T19:32:45.737Z,3.10
2022-08-11T19:35:05.489Z,2.72
2022-08-11T19:37:24.677Z,2.85
2022-08-11T19:39:44.480Z,2.70
2022-08-11T19:42:03.279Z,2.80
2022-08-11T19:44:19.833Z,2.92
2022-08-11T19:46:39.104Z,2.30
2022-08-11T19:48:58.266Z,2.88
2022-08-11T19:51:14.961Z,2.55
2022-08-11T19:53:34.394Z,2.55
2022-08-11T19:55:53.238Z,3.10
2022-08-11T19:58:10.269Z,2.53
2022-08-11T20:00:31.717Z,2.55
2022-08-11T20:02:48.593Z,2.47
2022-08-11T20:05:05.573Z,3.25
2022-08-11T20:07:23.977Z,3.00
2022-08-11T20:10:06.208Z,2.70
2022-08-11T20:12:24.210Z,2.75
2022-08-11T20:14:45.723Z,2.60
2022-08-11T20:17:05.212Z,2.50
2022-08-11T20:19:25.984Z,2.78
2022-08-11T20:22:01.796Z,2.50
2022-08-11T20:24:23.282Z,2.90
2022-08-11T20:26:46.187Z,2.45
2022-08-11T20:29:10.829Z,2.75
2022-08-11T20:31:29.559Z,2.30
2022-08-11T20:33:46.501Z,2.80
2022-08-11T20:36:08.778Z,2.60
2022-08-11T20:38:28.792Z,2.60
2022-08-11T20:40:47.959Z,2.67
2022-08-11T20:43:05.980Z,2.97
2022-08-11T20:45:56.753Z,2.50
2022-08-11T20:48:18.507Z,2.78
2022-08-11T20:50:45.755Z,2.30
2022-08-11T20:53:04.685Z,2.17
2022-08-11T20:55:45.591Z,2.40
2022-08-11T20:58:05.217Z,2.35
2022-08-11T21:00:38.890Z,2.40
2022-08-11T21:02:56.374Z,3.03
2022-08-11T21:05:21.678Z,2.20
2022-08-11T21:08:00.641Z,2.50
2022-08-11T21:10:23.367Z,2.90
2022-08-11T21:12:41.654Z,2.90
2022-08-11T21:15:04.824Z,2.90
2022-08-11T21:17:27.005Z,2.25
2022-08-11T21:20:00.010Z,2.22
2022-08-11T21:22:28.107Z,2.25
2022-08-11T21:24:48.059Z,2.47
2022-08-11T21:27:06.152Z,2.30
2022-08-11T21:29:23.260Z,2.08
2022-08-11T21:31:40.297Z,2.08
2022-08-11T21:33:57.931Z,2.58
2022-08-11T21:36:18.703Z,1.85
2022-08-11T21:38:36.165Z,2.22
2022-08-11T21:40:56.470Z,2.90
2022-08-11T21:43:16.869Z,2.90
2022-08-11T21:45:34.291Z,2.13
2022-08-11T21:48:01.182Z,2.25
2022-08-11T21:50:22.956Z,2.28
2022-08-11T21:52:40.059Z,2.00
2022-08-11T21:54:56.783Z,2.00
2022-08-11T21:57:16.849Z,2.33
2022-08-11T21:59:37.162Z,2.30
2022-08-11T22:01:53.930Z,2.40
2022-08-11T22:04:14.460Z,2.80
2022-08-11T22:06:31.304Z,2.70
2022-08-11T22:08:47.906Z,6.45
2022-08-11T22:11:08.546Z,4.70
2022-08-11T22:13:27.525Z,3.20
2022-08-11T22:15:44.139Z,3.00
2022-08-11T22:18:04.860Z,3.17
2022-08-11T22:20:21.937Z,2.67
2022-08-11T22:22:52.465Z,2.50
2022-08-11T22:25:16.609Z,2.35
2022-08-11T22:27:35.452Z,2.38
2022-08-11T22:29:52.084Z,2.53
2022-08-11T22:32:10.581Z,2.40
2022-08-11T22:34:27.367Z,2.20
2022-08-11T22:36:44.022Z,2.45
2022-08-11T22:39:05.491Z,1.90
2022-08-11T22:41:21.993Z,2.47
2022-08-11T22:43:39.051Z,2.20
2022-08-11T22:45:57.719Z,2.25
2022-08-11T22:48:15.286Z,1.95
2022-08-11T22:50:31.999Z,2.45
2022-08-11T22:52:52.380Z,1.83
2022-08-11T22:57:39.801Z,2.03
2022-08-11T22:59:59.945Z,2.22
2022-08-11T23:02:17.477Z,2.20
2022-08-11T23:04:34.369Z,2.00
2022-08-11T23:06:50.940Z,1.88
2022-08-11T23:09:07.882Z,2.47
2022-08-11T23:11:24.733Z,2.15
2022-08-11T23:13:45.940Z,2.08
2022-08-11T23:16:02.541Z,2.08
2022-08-11T23:18:19.180Z,2.40
2022-08-11T23:20:52.909Z,2.30
2022-08-11T23:23:11.350Z,2.20
2022-08-11T23:25:28.054Z,2.50
2022-08-11T23:27:47.894Z,2.83
2022-08-11T23:30:05.154Z,2.50
2022-08-11T23:32:21.721Z,2.35
2022-08-11T23:35:04.223Z,1.98
2022-08-11T23:37:26.798Z,2.40
2022-08-11T23:39:46.190Z,2.17
2022-08-11T23:42:05.101Z,2.45
2022-08-11T23:44:22.358Z,2.05
2022-08-11T23:46:41.086Z,2.05
2022-08-11T23:49:00.374Z,2.40
2022-08-11T23:51:18.634Z,2.05
2022-08-11T23:53:37.291Z,2.47
2022-08-11T23:55:55.831Z,2.33
2022-08-11T23:58:12.537Z,2.20
